Time;durP1;ratioP1;P1;durP2;ratioP2;P2;SDS_P1;SDS_P2;PMS_P1;PMS_P2;Temp;Humidity;BMP_temperature;BMP_pressure;BME280_temperature;BME280_humidity;BME280_pressure;Samples;Min_cycle;Max_cycle;Signal;HPM_P1;HPM_P2
2023/01/23 00:00:07;;;;;;;0.03;0.03;;;3.30;89.90;;;;;;4979577;28;20054;-68
2023/01/23 00:02:32;;;;;;;0.00;0.00;;;3.30;90.00;;;;;;4978153;28;20042;-68
2023/01/23 00:04:58;;;;;;;0.43;0.43;;;3.40;89.90;;;;;;4979142;28;20050;-68
2023/01/23 00:07:24;;;;;;;0.00;0.00;;;3.40;89.90;;;;;;4988667;28;20054;-69
2023/01/23 00:09:49;;;;;;;0.00;0.00;;;3.40;89.90;;;;;;4987012;28;20053;-68
2023/01/23 00:12:15;;;;;;;0.00;0.00;;;3.40;89.90;;;;;;4983479;28;20046;-68
2023/01/23 00:14:40;;;;;;;0.00;0.00;;;3.50;89.80;;;;;;4956838;28;20047;-68
2023/01/23 00:17:06;;;;;;;0.35;0.35;;;3.50;89.80;;;;;;4975171;28;20050;-68
2023/01/23 00:19:31;;;;;;;0.10;0.10;;;3.40;89.80;;;;;;4987324;28;20043;-68
2023/01/23 00:21:59;;;;;;;0.00;0.00;;;3.50;89.60;;;;;;4973990;28;20141;-68
2023/01/23 00:24:25;;;;;;;0.00;0.00;;;3.40;89.50;;;;;;4980461;28;20060;-68
2023/01/23 00:26:51;;;;;;;0.20;0.20;;;3.40;89.60;;;;;;4983639;28;20074;-68
2023/01/23 00:29:17;;;;;;;0.00;0.00;;;3.40;89.60;;;;;;4972220;28;20043;-68
2023/01/23 00:31:42;;;;;;;0.03;0.03;;;3.40;89.60;;;;;;4973600;28;20471;-68
2023/01/23 00:34:11;;;;;;;0.00;0.00;;;3.40;89.60;;;;;;4978881;28;20038;-68
2023/01/23 00:36:40;;;;;;;0.00;0.00;;;3.40;89.60;;;;;;4991342;28;20534;-68
2023/01/23 00:39:13;;;;;;;0.10;0.10;;;3.40;89.60;;;;;;4987206;28;20054;-68
2023/01/23 00:41:38;;;;;;;0.00;0.00;;;3.40;89.60;;;;;;4973155;28;20047;-68
2023/01/23 00:44:04;;;;;;;0.10;0.10;;;3.40;89.60;;;;;;4981153;28;20932;-68
2023/01/23 00:46:29;;;;;;;0.00;0.00;;;3.40;89.60;;;;;;4979338;28;20058;-68
2023/01/23 00:48:55;;;;;;;0.10;0.10;;;3.40;89.60;;;;;;5005316;28;20045;-68
2023/01/23 00:51:21;;;;;;;0.00;0.00;;;3.40;89.50;;;;;;4973756;28;20050;-68
2023/01/23 00:53:46;;;;;;;0.00;0.00;;;3.40;89.50;;;;;;4974133;28;20134;-68
2023/01/23 00:56:12;;;;;;;0.00;0.00;;;3.40;89.50;;;;;;4976380;28;20389;-68
2023/01/23 00:58:39;;;;;;;0.00;0.00;;;3.40;89.50;;;;;;4972560;28;20074;-68
2023/01/23 01:01:05;;;;;;;0.00;0.00;;;3.40;89.50;;;;;;4960014;28;20050;-68
2023/01/23 01:03:30;;;;;;;0.17;0.17;;;3.40;89.50;;;;;;4988440;28;20046;-68
2023/01/23 01:05:56;;;;;;;0.00;0.00;;;3.40;89.60;;;;;;4973299;28;20078;-68
2023/01/23 01:08:22;;;;;;;0.00;0.00;;;3.40;89.60;;;;;;4980161;28;20046;-68
2023/01/23 01:10:47;;;;;;;0.00;0.00;;;3.40;89.60;;;;;;4975562;28;20081;-68
2023/01/23 01:13:13;;;;;;;0.50;0.35;;;3.40;89.60;;;;;;4989080;28;20411;-68
2023/01/23 01:15:39;;;;;;;0.08;0.08;;;3.40;89.50;;;;;;4991594;28;20046;-68
2023/01/23 01:18:04;;;;;;;0.00;0.00;;;3.40;89.60;;;;;;4991748;28;20583;-68
2023/01/23 01:20:30;;;;;;;0.00;0.00;;;3.40;89.60;;;;;;4990234;28;20046;-68
2023/01/23 01:22:57;;;;;;;0.00;0.00;;;3.50;89.50;;;;;;4986622;28;20042;-68
2023/01/23 01:25:23;;;;;;;0.00;0.00;;;3.40;89.50;;;;;;4972930;28;20066;-68
2023/01/23 01:27:48;;;;;;;0.00;0.00;;;3.40;89.50;;;;;;4973521;28;20039;-67
2023/01/23 01:30:16;;;;;;;0.15;0.10;;;3.40;89.40;;;;;;4985632;28;20050;-68
2023/01/23 01:32:42;;;;;;;0.00;0.00;;;3.40;89.40;;;;;;4987524;28;20077;-67
2023/01/23 01:35:09;;;;;;;0.40;0.38;;;3.40;89.40;;;;;;4992962;28;20469;-68
2023/01/23 01:37:36;;;;;;;0.00;0.00;;;3.40;89.50;;;;;;4986759;28;20100;-67
2023/01/23 01:40:06;;;;;;;0.00;0.00;;;3.40;89.50;;;;;;4977906;28;20046;-67
2023/01/23 01:42:38;;;;;;;0.10;0.10;;;3.40;89.50;;;;;;4984857;28;20038;-68
2023/01/23 01:45:05;;;;;;;0.00;0.00;;;3.40;89.50;;;;;;4972356;28;20046;-68
2023/01/23 01:47:30;;;;;;;0.00;0.00;;;3.40;89.40;;;;;;4971220;28;20050;-68
2023/01/23 01:50:00;;;;;;;0.00;0.00;;;3.40;89.50;;;;;;4989542;28;20507;-67
2023/01/23 01:52:26;;;;;;;0.10;0.10;;;3.40;89.50;;;;;;4986958;28;20046;-67
2023/01/23 01:55:01;;;;;;;0.00;0.00;;;3.40;89.50;;;;;;4982875;28;20515;-68
2023/01/23 01:57:42;;;;;;;0.00;0.00;;;3.40;89.50;;;;;;4970699;28;20043;-68
2023/01/23 02:00:14;;;;;;;0.00;0.00;;;3.40;89.50;;;;;;4987319;28;20050;-68
2023/01/23 02:02:50;;;;;;;0.00;0.00;;;3.30;89.50;;;;;;4973975;28;20066;-68
2023/01/23 02:05:20;;;;;;;0.08;0.08;;;3.30;89.60;;;;;;4972473;28;20089;-68
2023/01/23 02:08:16;;;;;;;0.00;0.00;;;3.30;89.60;;;;;;4972978;28;20053;-68
2023/01/23 02:10:43;;;;;;;0.43;0.43;;;3.30;89.60;;;;;;4966842;28;20059;-68
2023/01/23 02:13:38;;;;;;;0.00;0.00;;;3.30;89.70;;;;;;4978914;28;20053;-68
2023/01/23 02:16:07;;;;;;;0.00;0.00;;;3.30;89.70;;;;;;4975827;28;20047;-68
2023/01/23 02:18:35;;;;;;;0.00;0.00;;;3.30;89.70;;;;;;4970855;28;20512;-68
2023/01/23 02:21:05;;;;;;;0.00;0.00;;;3.30;89.80;;;;;;4987213;28;20085;-68
2023/01/23 02:23:48;;;;;;;0.10;0.10;;;3.30;89.70;;;;;;4976702;28;20129;-68
2023/01/23 02:26:20;;;;;;;0.00;0.00;;;3.30;89.80;;;;;;4971553;28;20530;-68
2023/01/23 02:28:50;;;;;;;0.00;0.00;;;3.20;89.90;;;;;;4977522;28;20508;-68
2023/01/23 02:31:16;;;;;;;0.00;0.00;;;3.20;89.80;;;;;;4973294;28;20050;-68
2023/01/23 02:33:53;;;;;;;0.00;0.00;;;3.30;89.90;;;;;;4983017;28;20581;-68
2023/01/23 02:36:21;;;;;;;0.10;0.10;;;3.30;89.90;;;;;;4977141;28;20049;-68
2023/01/23 02:39:09;;;;;;;0.00;0.00;;;3.20;89.90;;;;;;4984170;28;20050;-68
2023/01/23 02:41:42;;;;;;;0.00;0.00;;;3.20;89.80;;;;;;4972674;28;20050;-68
2023/01/23 02:44:25;;;;;;;0.00;0.00;;;3.20;89.80;;;;;;4971683;28;20533;-68
2023/01/23 02:46:52;;;;;;;0.00;0.00;;;3.20;89.80;;;;;;4970607;28;20051;-68
2023/01/23 02:49:19;;;;;;;0.10;0.10;;;3.20;89.90;;;;;;4979559;28;20065;-68
2023/01/23 02:51:44;;;;;;;0.00;0.00;;;3.20;89.90;;;;;;4989917;28;20034;-68
2023/01/23 02:54:10;;;;;;;0.00;0.00;;;3.10;90.00;;;;;;4973628;28;20042;-68
2023/01/23 02:56:35;;;;;;;9.82;1.50;;;3.10;90.00;;;;;;4970854;28;20082;-68
2023/01/23 03:01:45;;;;;;;0.00;0.00;;;3.10;90.00;;;;;;4982648;28;20058;-68
2023/01/23 03:04:11;;;;;;;0.00;0.00;;;3.10;90.10;;;;;;5009907;28;20779;-68
2023/01/23 03:06:36;;;;;;;0.00;0.00;;;3.10;90.10;;;;;;4999597;28;20045;-68
2023/01/23 03:09:08;;;;;;;4.85;2.55;;;3.10;90.10;;;;;;4986263;28;20553;-68
2023/01/23 03:11:36;;;;;;;0.00;0.00;;;3.10;90.10;;;;;;4972616;28;20058;-68
2023/01/23 03:14:02;;;;;;;0.00;0.00;;;3.10;90.10;;;;;;4970700;28;20058;-68
2023/01/23 03:16:28;;;;;;;0.10;0.10;;;3.10;90.00;;;;;;4975861;28;20407;-68
2023/01/23 03:18:56;;;;;;;0.03;0.03;;;3.10;90.10;;;;;;4988309;28;20475;-68
2023/01/23 03:21:22;;;;;;;0.00;0.00;;;3.10;90.10;;;;;;4985723;28;20053;-68
2023/01/23 03:23:47;;;;;;;0.00;0.00;;;3.20;90.00;;;;;;4990381;28;20042;-68
2023/01/23 03:26:13;;;;;;;0.00;0.00;;;3.10;90.00;;;;;;4982679;28;20109;-68
2023/01/23 03:31:23;;;;;;;0.10;0.10;;;3.10;90.10;;;;;;4980774;28;20058;-68
2023/01/23 03:33:48;;;;;;;0.30;0.30;;;3.10;90.20;;;;;;4989270;28;20518;-68
2023/01/23 03:36:14;;;;;;;0.00;0.00;;;3.10;90.20;;;;;;4988783;28;20038;-68
2023/01/23 03:41:23;;;;;;;0.10;0.10;;;3.10;90.20;;;;;;4976943;28;20575;-68
2023/01/23 03:41:25;;;;;;;0.00;0.00;;;3.10;90.10;;;;;;4983147;28;20735;-68
2023/01/23 03:43:51;;;;;;;0.17;0.17;;;3.10;90.10;;;;;;4986288;28;20046;-68
2023/01/23 03:46:17;;;;;;;0.03;0.03;;;3.10;90.20;;;;;;4988620;28;20043;-68
2023/01/23 03:48:42;;;;;;;0.00;0.00;;;3.00;90.20;;;;;;4976956;28;20047;-68
2023/01/23 03:51:08;;;;;;;0.00;0.00;;;3.10;90.20;;;;;;4987238;28;20167;-68
2023/01/23 03:53:33;;;;;;;0.30;0.30;;;3.00;90.10;;;;;;4988950;28;20034;-68
2023/01/23 03:55:59;;;;;;;0.00;0.00;;;3.10;90.20;;;;;;4988954;28;20189;-68
2023/01/23 03:58:25;;;;;;;0.05;0.05;;;3.10;90.30;;;;;;4970111;28;20471;-68
2023/01/23 04:00:51;;;;;;;0.00;0.00;;;3.10;90.20;;;;;;4980537;28;20100;-68
2023/01/23 04:03:17;;;;;;;0.00;0.00;;;3.10;90.20;;;;;;4986244;28;20054;-68
2023/01/23 04:05:42;;;;;;;2.95;1.85;;;3.10;90.20;;;;;;4970343;28;20695;-68
2023/01/23 04:08:08;;;;;;;0.00;0.00;;;3.10;90.20;;;;;;4977009;28;20046;-68
2023/01/23 04:10:33;;;;;;;0.08;0.08;;;3.10;90.20;;;;;;4980339;28;20057;-68
2023/01/23 04:12:59;;;;;;;0.00;0.00;;;3.10;90.10;;;;;;4977927;28;20067;-68
2023/01/23 04:15:24;;;;;;;0.35;0.35;;;3.10;90.10;;;;;;4974086;28;20046;-68
2023/01/23 04:17:50;;;;;;;0.00;0.00;;;3.10;90.00;;;;;;4979452;28;20049;-68
2023/01/23 04:20:15;;;;;;;0.47;0.47;;;3.10;89.90;;;;;;4974945;28;20049;-69
2023/01/23 04:22:41;;;;;;;0.00;0.00;;;3.10;89.80;;;;;;4972161;28;20042;-68
2023/01/23 04:25:07;;;;;;;0.75;0.40;;;3.10;89.90;;;;;;4970327;28;20050;-68
2023/01/23 04:27:33;;;;;;;0.00;0.00;;;3.10;89.90;;;;;;4974002;28;20427;-68
2023/01/23 04:29:58;;;;;;;0.10;0.10;;;3.10;90.00;;;;;;4971428;28;20047;-68
2023/01/23 04:32:24;;;;;;;0.00;0.00;;;3.10;90.00;;;;;;4971040;28;20097;-68
2023/01/23 04:34:50;;;;;;;0.00;0.00;;;3.10;90.00;;;;;;4988232;28;20181;-68
2023/01/23 04:37:15;;;;;;;0.10;0.10;;;3.00;90.00;;;;;;4985971;28;20804;-68
2023/01/23 04:39:41;;;;;;;0.10;0.10;;;3.00;90.10;;;;;;4977740;28;20039;-68
2023/01/23 04:42:07;;;;;;;0.10;0.10;;;3.00;90.10;;;;;;4982336;28;20046;-68
2023/01/23 04:44:32;;;;;;;0.13;0.13;;;3.00;90.10;;;;;;4981931;28;20507;-68
2023/01/23 04:46:59;;;;;;;0.00;0.00;;;3.00;90.30;;;;;;4988483;28;20124;-68
2023/01/23 04:49:25;;;;;;;0.00;0.00;;;3.00;90.30;;;;;;4975579;28;20039;-68
2023/01/23 04:51:51;;;;;;;0.00;0.00;;;3.10;90.30;;;;;;4990975;28;20050;-68
2023/01/23 04:54:18;;;;;;;0.00;0.00;;;3.10;90.30;;;;;;4986007;28;20100;-68
2023/01/23 04:56:44;;;;;;;0.00;0.00;;;3.10;90.30;;;;;;4992904;28;20046;-68
2023/01/23 04:59:10;;;;;;;0.00;0.00;;;3.10;90.30;;;;;;4990299;28;20046;-68
2023/01/23 05:01:36;;;;;;;0.00;0.00;;;3.20;90.30;;;;;;4979820;28;20400;-68
2023/01/23 05:04:02;;;;;;;0.00;0.00;;;3.20;90.30;;;;;;4979908;28;20053;-68
2023/01/23 05:06:28;;;;;;;0.00;0.00;;;3.20;90.20;;;;;;4990560;28;20120;-68
2023/01/23 05:08:54;;;;;;;0.00;0.00;;;3.20;90.20;;;;;;4977190;28;20516;-68
2023/01/23 05:11:20;;;;;;;0.00;0.00;;;3.30;90.10;;;;;;4974321;28;20062;-68
2023/01/23 05:13:46;;;;;;;0.00;0.00;;;3.30;90.00;;;;;;4972925;28;20798;-68
2023/01/23 05:16:11;;;;;;;0.03;0.03;;;3.30;89.90;;;;;;4972762;28;20047;-68
2023/01/23 05:18:37;;;;;;;0.00;0.00;;;3.20;89.80;;;;;;4982644;28;20584;-68
2023/01/23 05:21:03;;;;;;;0.00;0.00;;;3.30;89.80;;;;;;4989756;28;20046;-70
2023/01/23 05:23:28;;;;;;;0.73;0.73;;;3.30;89.70;;;;;;4972645;28;20138;-67
2023/01/23 05:25:54;;;;;;;0.00;0.00;;;3.20;89.70;;;;;;4989968;28;20100;-69
2023/01/23 05:28:19;;;;;;;0.10;0.10;;;3.20;89.60;;;;;;4983331;28;20414;-70
2023/01/23 05:30:45;;;;;;;0.05;0.05;;;3.20;89.60;;;;;;4983288;28;20050;-69
2023/01/23 05:33:11;;;;;;;0.00;0.00;;;3.20;89.60;;;;;;4982624;28;20404;-69
2023/01/23 05:35:40;;;;;;;0.00;0.00;;;3.10;89.50;;;;;;4987861;28;20038;-69
2023/01/23 05:38:05;;;;;;;0.57;0.57;;;3.20;89.60;;;;;;4979091;28;20134;-67
2023/01/23 05:40:31;;;;;;;0.00;0.00;;;3.10;89.50;;;;;;4976764;28;20509;-66
2023/01/23 05:42:57;;;;;;;0.00;0.00;;;3.10;89.70;;;;;;4989338;28;20108;-67
2023/01/23 05:45:22;;;;;;;0.20;0.20;;;3.10;89.70;;;;;;4979523;28;20062;-67
2023/01/23 05:47:48;;;;;;;0.00;0.00;;;3.10;89.70;;;;;;4987927;28;20038;-67
2023/01/23 05:50:16;;;;;;;0.00;0.00;;;3.20;89.70;;;;;;4984701;28;20051;-67
2023/01/23 05:52:42;;;;;;;1.13;1.10;;;3.20;89.70;;;;;;4972776;28;20184;-70
2023/01/23 05:55:07;;;;;;;0.00;0.00;;;3.20;89.70;;;;;;4960235;28;20130;-69
2023/01/23 05:57:34;;;;;;;0.00;0.00;;;3.30;89.70;;;;;;4974109;28;20061;-70
2023/01/23 05:59:59;;;;;;;0.00;0.00;;;3.30;89.70;;;;;;4986660;28;20043;-69
2023/01/23 06:02:25;;;;;;;0.00;0.00;;;3.30;89.70;;;;;;4989921;28;20046;-67
2023/01/23 06:04:51;;;;;;;0.00;0.00;;;3.30;89.60;;;;;;4990757;28;20090;-66
2023/01/23 06:07:18;;;;;;;0.00;0.00;;;3.40;89.60;;;;;;4987181;28;20050;-67
2023/01/23 06:09:44;;;;;;;0.00;0.00;;;3.40;89.40;;;;;;4972312;28;20058;-67
2023/01/23 06:12:10;;;;;;;0.00;0.00;;;3.40;89.50;;;;;;4973920;28;20046;-67
2023/01/23 06:14:35;;;;;;;0.00;0.00;;;3.50;89.50;;;;;;4973327;28;20061;-66
2023/01/23 06:17:01;;;;;;;0.00;0.00;;;3.40;89.50;;;;;;4984444;28;20130;-67
2023/01/23 06:19:26;;;;;;;0.00;0.00;;;3.50;89.50;;;;;;4972524;28;20051;-67
2023/01/23 06:21:52;;;;;;;0.00;0.00;;;3.50;89.50;;;;;;4978182;28;20056;-67
2023/01/23 06:24:17;;;;;;;0.00;0.00;;;3.50;89.40;;;;;;4984381;28;20643;-67
2023/01/23 06:26:43;;;;;;;0.00;0.00;;;3.50;89.40;;;;;;4972783;28;20038;-67
2023/01/23 06:29:09;;;;;;;0.00;0.00;;;3.60;89.30;;;;;;4977409;28;20067;-69
2023/01/23 06:31:34;;;;;;;2.28;1.23;;;3.50;89.40;;;;;;4981412;28;20093;-69
2023/01/23 06:34:00;;;;;;;0.08;0.08;;;3.60;89.40;;;;;;4985191;28;20043;-70
2023/01/23 06:36:26;;;;;;;0.00;0.00;;;3.60;89.40;;;;;;4985511;28;20132;-67
2023/01/23 06:38:52;;;;;;;0.00;0.00;;;3.60;89.30;;;;;;4978614;28;20069;-68
2023/01/23 06:41:18;;;;;;;0.00;0.00;;;3.50;89.20;;;;;;4984835;28;20415;-70
2023/01/23 06:43:43;;;;;;;0.00;0.00;;;3.50;89.40;;;;;;4980696;28;20058;-70
2023/01/23 06:46:09;;;;;;;0.00;0.00;;;3.50;89.40;;;;;;4980160;28;20408;-70
2023/01/23 06:48:36;;;;;;;0.00;0.00;;;3.60;89.40;;;;;;4985160;28;20533;-68
2023/01/23 06:51:02;;;;;;;0.00;0.00;;;3.60;89.40;;;;;;4985548;28;20057;-70
2023/01/23 06:53:28;;;;;;;0.00;0.00;;;3.60;89.40;;;;;;4984561;28;20059;-68
2023/01/23 06:56:01;;;;;;;0.00;0.00;;;3.60;89.40;;;;;;4981688;28;20050;-69
2023/01/23 06:58:27;;;;;;;0.03;0.03;;;3.60;89.40;;;;;;4983303;28;20081;-70
2023/01/23 07:00:53;;;;;;;0.00;0.00;;;3.60;89.40;;;;;;4983644;28;20435;-68
2023/01/23 07:03:19;;;;;;;0.00;0.00;;;3.50;89.30;;;;;;4980650;28;20054;-70
2023/01/23 07:05:45;;;;;;;0.00;0.00;;;3.50;89.30;;;;;;4983277;28;20057;-68
2023/01/23 07:08:11;;;;;;;0.00;0.00;;;3.50;89.30;;;;;;4973733;28;20042;-67
2023/01/23 07:10:36;;;;;;;0.00;0.00;;;3.50;89.40;;;;;;4989363;28;20084;-68
2023/01/23 07:13:06;;;;;;;0.00;0.00;;;3.50;89.40;;;;;;4978471;28;20058;-68
2023/01/23 07:15:32;;;;;;;0.00;0.00;;;3.40;89.20;;;;;;4987698;28;20042;-69
2023/01/23 07:17:59;;;;;;;0.00;0.00;;;3.40;89.30;;;;;;4979525;28;20050;-68
2023/01/23 07:20:27;;;;;;;0.00;0.00;;;4.20;93.20;;;;;;4978037;28;20578;-70
2023/01/23 07:22:53;;;;;;;0.00;0.00;;;4.40;91.00;;;;;;4973324;28;20042;-69
2023/01/23 07:25:20;;;;;;;0.00;0.00;;;4.30;90.60;;;;;;4975625;28;20147;-69
2023/01/23 07:27:45;;;;;;;0.00;0.00;;;4.20;90.30;;;;;;4970178;28;20046;-71
2023/01/23 07:30:11;;;;;;;0.00;0.00;;;4.10;90.00;;;;;;4989303;28;20081;-71
2023/01/23 07:32:37;;;;;;;0.00;0.00;;;3.90;89.90;;;;;;4990026;28;20049;-70
2023/01/23 07:35:03;;;;;;;0.00;0.00;;;3.90;89.80;;;;;;4965452;28;20415;-70
2023/01/23 07:37:28;;;;;;;0.40;0.40;;;3.90;89.70;;;;;;4981335;28;20403;-62
2023/01/23 07:39:54;;;;;;;0.00;0.00;;;3.80;89.70;;;;;;4976307;28;20047;-72
2023/01/23 07:42:20;;;;;;;0.00;0.00;;;4.00;89.90;;;;;;4980630;28;20129;-66
2023/01/23 07:44:45;;;;;;;0.00;0.00;;;4.00;89.80;;;;;;4988903;28;20096;-68
2023/01/23 07:47:11;;;;;;;0.00;0.00;;;4.00;89.60;;;;;;4988428;28;20590;-68
2023/01/23 07:49:36;;;;;;;0.00;0.00;;;4.00;89.60;;;;;;4986445;28;20447;-69
2023/01/23 07:52:03;;;;;;;0.00;0.00;;;3.90;89.50;;;;;;4976958;28;20043;-67
2023/01/23 07:54:28;;;;;;;0.00;0.00;;;3.90;89.40;;;;;;4985465;28;20034;-65
2023/01/23 07:56:54;;;;;;;0.10;0.10;;;4.00;89.50;;;;;;4995172;28;20030;-67
2023/01/23 07:59:20;;;;;;;0.00;0.00;;;4.00;89.20;;;;;;4996860;28;20145;-67
2023/01/23 08:01:47;;;;;;;0.00;0.00;;;4.00;89.20;;;;;;4994883;28;20046;-67
2023/01/23 08:04:13;;;;;;;0.00;0.00;;;4.00;89.10;;;;;;4995291;28;20054;-67
2023/01/23 08:06:39;;;;;;;0.00;0.00;;;3.90;89.00;;;;;;4995283;28;20458;-67
2023/01/23 08:09:04;;;;;;;0.05;0.05;;;3.90;88.90;;;;;;4995185;28;20045;-67
2023/01/23 08:11:30;;;;;;;0.00;0.00;;;3.90;88.90;;;;;;4989867;28;20086;-67
2023/01/23 08:13:55;;;;;;;0.00;0.00;;;3.90;88.90;;;;;;4995522;28;20038;-68
2023/01/23 08:16:21;;;;;;;0.00;0.00;;;3.90;88.90;;;;;;4995424;28;20053;-69
2023/01/23 08:18:47;;;;;;;0.00;0.00;;;4.00;89.00;;;;;;4997384;28;20046;-67
2023/01/23 08:21:12;;;;;;;0.00;0.00;;;3.90;88.90;;;;;;4997237;28;20145;-67
2023/01/23 08:23:38;;;;;;;0.00;0.00;;;3.90;88.90;;;;;;5000014;28;20043;-67
2023/01/23 08:26:07;;;;;;;0.00;0.00;;;3.90;88.90;;;;;;5014942;28;20054;-67
2023/01/23 08:28:33;;;;;;;0.00;0.00;;;4.00;88.90;;;;;;4999924;28;20670;-67
2023/01/23 08:31:04;;;;;;;0.00;0.00;;;4.00;88.80;;;;;;4998025;28;20049;-67
2023/01/23 08:33:31;;;;;;;0.00;0.00;;;4.00;88.80;;;;;;5000626;28;20080;-67
2023/01/23 08:35:57;;;;;;;0.00;0.00;;;3.90;88.70;;;;;;4998938;28;20889;-67
2023/01/23 08:38:23;;;;;;;0.00;0.00;;;3.90;88.70;;;;;;4998709;28;20309;-68
2023/01/23 08:40:50;;;;;;;0.00;0.00;;;3.90;88.70;;;;;;5000873;28;20129;-68
2023/01/23 08:43:17;;;;;;;0.00;0.00;;;4.00;88.70;;;;;;4991820;28;20078;-67
2023/01/23 08:45:51;;;;;;;0.00;0.00;;;4.00;88.70;;;;;;4993684;28;20176;-66
2023/01/23 08:48:17;;;;;;;0.00;0.00;;;4.00;88.70;;;;;;4998607;28;20490;-67
2023/01/23 08:50:43;;;;;;;0.00;0.00;;;4.10;88.70;;;;;;4996466;28;20146;-66
2023/01/23 08:53:09;;;;;;;0.00;0.00;;;4.00;88.70;;;;;;4999394;28;20415;-67
2023/01/23 08:55:36;;;;;;;0.00;0.00;;;4.00;88.70;;;;;;5000868;28;20507;-67
2023/01/23 08:58:02;;;;;;;0.00;0.00;;;4.00;88.70;;;;;;4997613;28;20046;-67
2023/01/23 09:00:28;;;;;;;0.05;0.05;;;4.00;88.60;;;;;;4999991;28;20060;-67
2023/01/23 09:02:53;;;;;;;0.00;0.00;;;4.00;88.60;;;;;;4998970;28;20045;-68
2023/01/23 09:05:19;;;;;;;0.00;0.00;;;4.00;88.60;;;;;;4996609;28;20133;-68
2023/01/23 09:07:46;;;;;;;0.00;0.00;;;4.00;88.60;;;;;;4999207;28;20045;-67
2023/01/23 09:10:12;;;;;;;0.00;0.00;;;4.70;90.80;;;;;;4998688;28;20054;-68
2023/01/23 09:12:40;;;;;;;0.00;0.00;;;4.70;89.70;;;;;;4998000;28;20188;-67
2023/01/23 09:15:06;;;;;;;0.00;0.00;;;4.60;89.40;;;;;;4997532;28;20038;-68
2023/01/23 09:17:32;;;;;;;0.15;0.15;;;4.50;89.20;;;;;;4997216;28;20057;-68
2023/01/23 09:19:59;;;;;;;0.00;0.00;;;4.40;89.00;;;;;;5000365;28;20037;-67
2023/01/23 09:22:25;;;;;;;0.00;0.00;;;4.40;88.90;;;;;;4996632;28;20498;-67
2023/01/23 09:24:51;;;;;;;0.00;0.00;;;4.30;88.80;;;;;;4997885;28;20041;-68
2023/01/23 09:27:17;;;;;;;0.00;0.00;;;4.30;88.80;;;;;;4998747;28;20052;-67
2023/01/23 09:29:43;;;;;;;0.00;0.00;;;4.20;88.70;;;;;;4998500;28;20048;-67
2023/01/23 09:32:09;;;;;;;0.00;0.00;;;4.20;88.30;;;;;;4999444;28;20042;-68
2023/01/23 09:34:34;;;;;;;0.00;0.00;;;4.10;88.40;;;;;;4994232;28;20862;-68
2023/01/23 09:37:00;;;;;;;0.10;0.10;;;4.10;88.30;;;;;;4995158;28;20042;-68
2023/01/23 09:39:25;;;;;;;0.00;0.00;;;4.00;88.40;;;;;;4997640;28;20200;-68
2023/01/23 09:41:52;;;;;;;0.00;0.00;;;4.00;88.50;;;;;;4996952;28;20046;-67
2023/01/23 09:44:23;;;;;;;0.00;0.00;;;4.10;88.60;;;;;;4998352;28;20050;-68
2023/01/23 09:47:10;;;;;;;0.00;0.00;;;4.10;88.60;;;;;;4996137;28;20069;-68
2023/01/23 09:49:57;;;;;;;0.20;0.20;;;4.10;88.60;;;;;;4992555;28;20061;-68
2023/01/23 09:52:44;;;;;;;0.10;0.10;;;4.10;88.60;;;;;;4962726;28;20542;-67
2023/01/23 09:55:39;;;;;;;0.60;0.52;;;4.20;88.60;;;;;;4986170;28;20072;-68
2023/01/23 09:58:23;;;;;;;0.00;0.00;;;4.20;88.60;;;;;;4971629;28;20093;-68
2023/01/23 10:00:50;;;;;;;0.03;0.03;;;4.20;88.50;;;;;;4971733;28;20081;-65
2023/01/23 10:03:16;;;;;;;0.00;0.00;;;4.20;88.20;;;;;;4974192;28;20060;-66
2023/01/23 10:05:47;;;;;;;0.00;0.00;;;4.20;88.30;;;;;;4985120;28;20038;-65
2023/01/23 10:08:55;;;;;;;0.03;0.03;;;4.20;88.00;;;;;;4973576;28;20034;-65
2023/01/23 10:11:58;;;;;;;0.40;0.40;;;4.10;88.10;;;;;;4973762;28;20187;-68
2023/01/23 10:14:49;;;;;;;0.00;0.00;;;4.40;89.40;;;;;;4973412;28;20082;-66
2023/01/23 10:17:37;;;;;;;0.00;0.00;;;4.60;88.80;;;;;;4969990;28;20085;-67
2023/01/23 10:20:32;;;;;;;0.30;0.30;;;4.60;88.40;;;;;;4970757;28;20089;-67
2023/01/23 10:23:04;;;;;;;0.00;0.00;;;4.60;88.30;;;;;;4968357;28;20830;-67
2023/01/23 10:25:34;;;;;;;0.00;0.00;;;4.60;88.20;;;;;;4969798;28;20051;-67
2023/01/23 10:28:16;;;;;;;0.00;0.00;;;4.60;88.10;;;;;;4968134;28;20047;-67
2023/01/23 10:30:46;;;;;;;0.00;0.00;;;4.50;88.00;;;;;;4969884;28;20058;-67
2023/01/23 10:33:16;;;;;;;0.00;0.00;;;4.50;88.00;;;;;;4974919;28;20522;-67
2023/01/23 10:35:50;;;;;;;0.00;0.00;;;4.50;87.80;;;;;;4991109;28;20092;-67
2023/01/23 10:38:45;;;;;;;0.10;0.10;;;4.50;87.80;;;;;;4990517;28;20043;-67
2023/01/23 10:41:21;;;;;;;0.00;0.00;;;4.50;87.80;;;;;;4973512;28;20058;-67
2023/01/23 10:43:50;;;;;;;0.00;0.00;;;4.60;87.80;;;;;;4971754;28;20050;-67
2023/01/23 10:46:18;;;;;;;4.05;1.25;;;4.60;87.80;;;;;;4971105;28;20064;-67
2023/01/23 10:48:52;;;;;;;0.00;0.00;;;4.60;87.70;;;;;;4970584;28;20581;-66
2023/01/23 10:51:45;;;;;;;0.00;0.00;;;4.60;87.70;;;;;;4971181;28;20045;-67
2023/01/23 10:54:23;;;;;;;0.10;0.10;;;4.60;87.70;;;;;;4971204;28;20053;-67
2023/01/23 10:56:53;;;;;;;0.10;0.10;;;4.60;87.70;;;;;;4971225;28;20046;-67
2023/01/23 10:59:52;;;;;;;0.00;0.00;;;4.60;87.70;;;;;;4970046;28;20623;-67
2023/01/23 11:02:30;;;;;;;0.00;0.00;;;4.60;87.60;;;;;;4970988;28;20050;-67
2023/01/23 11:04:56;;;;;;;0.00;0.00;;;4.60;87.60;;;;;;4969676;28;20054;-67
2023/01/23 11:07:29;;;;;;;0.00;0.00;;;4.60;87.50;;;;;;4970880;28;20039;-67
2023/01/23 11:09:58;;;;;;;0.00;0.00;;;4.60;87.50;;;;;;4985746;28;20046;-67
2023/01/23 11:12:32;;;;;;;0.00;0.00;;;4.60;87.40;;;;;;4985487;28;20047;-67
2023/01/23 11:15:21;;;;;;;0.00;0.00;;;4.70;87.40;;;;;;4969766;28;20051;-67
2023/01/23 11:17:48;;;;;;;0.00;0.00;;;4.70;87.20;;;;;;4971142;28;20077;-67
2023/01/23 11:20:34;;;;;;;0.00;0.00;;;4.70;87.20;;;;;;4969923;28;20043;-67
2023/01/23 11:23:00;;;;;;;0.00;0.00;;;4.70;87.20;;;;;;4970555;28;20062;-67
2023/01/23 11:25:29;;;;;;;0.00;0.00;;;4.70;87.10;;;;;;4970695;28;20412;-67
2023/01/23 11:28:00;;;;;;;0.00;0.00;;;4.80;87.10;;;;;;4970660;28;20584;-67
2023/01/23 11:30:49;;;;;;;0.00;0.00;;;4.80;87.10;;;;;;4970710;28;20465;-67
2023/01/23 11:33:41;;;;;;;0.00;0.00;;;4.90;86.70;;;;;;4971160;28;20050;-67
2023/01/23 11:36:06;;;;;;;0.00;0.00;;;4.90;86.70;;;;;;4965840;28;20094;-66
2023/01/23 11:38:40;;;;;;;0.00;0.00;;;4.90;86.70;;;;;;4970502;28;20086;-66
2023/01/23 11:41:10;;;;;;;0.10;0.10;;;4.90;86.50;;;;;;4970583;28;20060;-68
2023/01/23 11:43:36;;;;;;;0.00;0.00;;;5.00;86.30;;;;;;4989184;28;20101;-68
2023/01/23 11:46:40;;;;;;;0.00;0.00;;;5.10;86.30;;;;;;4988869;28;20062;-68
2023/01/23 11:49:24;;;;;;;0.00;0.00;;;5.10;86.20;;;;;;4989357;28;20046;-68
2023/01/23 11:52:27;;;;;;;0.00;0.00;;;5.10;86.00;;;;;;4990041;28;20045;-68
2023/01/23 11:55:21;;;;;;;0.00;0.00;;;5.20;85.90;;;;;;4989934;28;20056;-68
2023/01/23 11:58:05;;;;;;;0.00;0.00;;;5.20;85.80;;;;;;4992417;28;20042;-68
2023/01/23 12:00:53;;;;;;;0.00;0.00;;;5.10;85.10;;;;;;4976428;28;20053;-68
2023/01/23 12:03:45;;;;;;;0.00;0.00;;;5.20;85.30;;;;;;4992564;28;20515;-68
2023/01/23 12:06:31;;;;;;;0.10;0.10;;;5.20;84.90;;;;;;4992466;28;20435;-68
2023/01/23 12:09:13;;;;;;;0.00;0.00;;;5.20;84.80;;;;;;4992698;28;20391;-68
2023/01/23 12:12:16;;;;;;;0.00;0.00;;;5.20;84.40;;;;;;4988711;28;20058;-68
2023/01/23 12:14:52;;;;;;;0.00;0.00;;;5.20;84.30;;;;;;4956995;28;20849;-68
2023/01/23 12:17:42;;;;;;;0.03;0.03;;;5.20;84.20;;;;;;4974021;28;20051;-68
2023/01/23 12:20:30;;;;;;;0.00;0.00;;;5.20;84.10;;;;;;4974119;28;20047;-68
2023/01/23 12:23:15;;;;;;;0.00;0.00;;;5.10;83.80;;;;;;4974022;28;20077;-68
2023/01/23 12:25:47;;;;;;;0.00;0.00;;;5.10;83.00;;;;;;4973530;28;20083;-68
2023/01/23 12:28:37;;;;;;;0.00;0.00;;;5.00;82.10;;;;;;4973052;28;20043;-68
2023/01/23 12:31:23;;;;;;;0.00;0.00;;;5.00;81.30;;;;;;4973952;28;20550;-68
2023/01/23 12:34:02;;;;;;;0.10;0.10;;;5.00;81.30;;;;;;4973403;28;20073;-68
2023/01/23 12:36:54;;;;;;;0.13;0.13;;;5.10;81.00;;;;;;4973834;28;20050;-68
2023/01/23 12:39:54;;;;;;;0.00;0.00;;;5.00;80.70;;;;;;4973531;28;20412;-68
2023/01/23 12:42:29;;;;;;;0.00;0.00;;;5.10;80.50;;;;;;4988861;28;20396;-68
2023/01/23 12:45:10;;;;;;;0.00;0.00;;;5.10;80.70;;;;;;4973458;28;20043;-68
2023/01/23 12:47:43;;;;;;;0.00;0.00;;;5.10;81.00;;;;;;4973522;28;20130;-68
2023/01/23 12:50:19;;;;;;;0.00;0.00;;;5.10;80.80;;;;;;4972248;28;20455;-67
2023/01/23 12:53:11;;;;;;;0.00;0.00;;;5.00;80.20;;;;;;4973390;28;20047;-68
2023/01/23 12:55:39;;;;;;;0.00;0.00;;;5.00;80.20;;;;;;4988770;28;20058;-68
2023/01/23 12:58:11;;;;;;;0.00;0.00;;;5.10;80.70;;;;;;4973064;28;20039;-68
2023/01/23 13:00:53;;;;;;;0.00;0.00;;;5.10;81.00;;;;;;4973211;28;20407;-66
2023/01/23 13:03:28;;;;;;;;;;;5.00;81.00;;;;;;4974506;28;20054;-66
2023/01/23 13:05:59;;;;;;;0.00;0.00;;;5.00;81.00;;;;;;4973351;28;19922;-66
2023/01/23 13:08:49;;;;;;;0.00;0.00;;;5.10;81.10;;;;;;4972545;28;20050;-66
2023/01/23 13:11:48;;;;;;;0.00;0.00;;;5.00;80.40;;;;;;4972884;28;20090;-66
2023/01/23 13:14:29;;;;;;;0.00;0.00;;;5.00;80.70;;;;;;4973081;28;20057;-67
2023/01/23 13:16:59;;;;;;;0.00;0.00;;;5.00;81.00;;;;;;4972938;28;20105;-67
2023/01/23 13:22:27;;;;;;;0.20;0.20;;;5.00;81.40;;;;;;4981278;28;20062;-67